sensor_id;sensor_type;location;lat;lon;timestamp;P1;durP1;ratioP1;P2;durP2;ratioP2
65031;SDS011;51593;55.714;37.436;2022-08-19T00:00:34;13.05;;;6.30;;
65031;SDS011;51593;55.714;37.436;2022-08-19T00:03:03;12.18;;;6.30;;
65031;SDS011;51593;55.714;37.436;2022-08-19T00:05:29;9.93;;;5.40;;
65031;SDS011;51593;55.714;37.436;2022-08-19T00:07:56;14.48;;;5.55;;
65031;SDS011;51593;55.714;37.436;2022-08-19T00:10:23;13.70;;;5.15;;
65031;SDS011;51593;55.714;37.436;2022-08-19T00:12:49;11.18;;;5.35;;
65031;SDS011;51593;55.714;37.436;2022-08-19T00:15:17;11.65;;;4.80;;
65031;SDS011;51593;55.714;37.436;2022-08-19T00:17:44;13.73;;;4.78;;
65031;SDS011;51593;55.714;37.436;2022-08-19T00:20:11;10.90;;;4.90;;
65031;SDS011;51593;55.714;37.436;2022-08-19T00:22:42;7.88;;;5.05;;
65031;SDS011;51593;55.714;37.436;2022-08-19T00:25:09;11.55;;;4.80;;
65031;SDS011;51593;55.714;37.436;2022-08-19T00:27:36;11.55;;;4.72;;
65031;SDS011;51593;55.714;37.436;2022-08-19T00:30:03;12.70;;;4.65;;
65031;SDS011;51593;55.714;37.436;2022-08-19T00:32:30;12.25;;;4.95;;
65031;SDS011;51593;55.714;37.436;2022-08-19T00:34:55;15.15;;;4.68;;
65031;SDS011;51593;55.714;37.436;2022-08-19T00:37:22;10.57;;;4.68;;
65031;SDS011;51593;55.714;37.436;2022-08-19T00:39:50;10.05;;;5.20;;
65031;SDS011;51593;55.714;37.436;2022-08-19T00:42:17;15.20;;;5.85;;
65031;SDS011;51593;55.714;37.436;2022-08-19T00:44:43;12.07;;;5.25;;
65031;SDS011;51593;55.714;37.436;2022-08-19T00:47:09;10.25;;;5.13;;
65031;SDS011;51593;55.714;37.436;2022-08-19T00:49:57;13.98;;;5.85;;
65031;SDS011;51593;55.714;37.436;2022-08-19T00:52:27;12.98;;;5.30;;
65031;SDS011;51593;55.714;37.436;2022-08-19T00:54:55;12.73;;;5.63;;
65031;SDS011;51593;55.714;37.436;2022-08-19T00:57:24;10.77;;;5.18;;
65031;SDS011;51593;55.714;37.436;2022-08-19T00:59:56;11.60;;;5.40;;
65031;SDS011;51593;55.714;37.436;2022-08-19T01:02:25;13.20;;;5.57;;
65031;SDS011;51593;55.714;37.436;2022-08-19T01:05:08;13.50;;;5.65;;
65031;SDS011;51593;55.714;37.436;2022-08-19T01:07:35;13.57;;;5.40;;
65031;SDS011;51593;55.714;37.436;2022-08-19T01:10:03;14.85;;;5.53;;
65031;SDS011;51593;55.714;37.436;2022-08-19T01:12:29;11.70;;;5.28;;
65031;SDS011;51593;55.714;37.436;2022-08-19T01:14:55;12.93;;;5.55;;
65031;SDS011;51593;55.714;37.436;2022-08-19T01:17:21;15.68;;;6.18;;
65031;SDS011;51593;55.714;37.436;2022-08-19T01:19:47;12.75;;;5.63;;
65031;SDS011;51593;55.714;37.436;2022-08-19T01:27:14;11.13;;;5.45;;
65031;SDS011;51593;55.714;37.436;2022-08-19T01:29:41;13.80;;;6.07;;
65031;SDS011;51593;55.714;37.436;2022-08-19T01:32:16;12.93;;;5.80;;
65031;SDS011;51593;55.714;37.436;2022-08-19T01:34:44;12.90;;;6.00;;
65031;SDS011;51593;55.714;37.436;2022-08-19T01:37:12;13.93;;;5.95;;
65031;SDS011;51593;55.714;37.436;2022-08-19T01:39:39;15.57;;;6.07;;
65031;SDS011;51593;55.714;37.436;2022-08-19T01:42:06;15.23;;;5.88;;
65031;SDS011;51593;55.714;37.436;2022-08-19T01:44:38;18.42;;;5.85;;
65031;SDS011;51593;55.714;37.436;2022-08-19T01:47:06;13.13;;;5.47;;
65031;SDS011;51593;55.714;37.436;2022-08-19T01:49:39;11.80;;;5.32;;
65031;SDS011;51593;55.714;37.436;2022-08-19T01:52:05;11.32;;;5.70;;
65031;SDS011;51593;55.714;37.436;2022-08-19T01:54:31;15.32;;;5.68;;
65031;SDS011;51593;55.714;37.436;2022-08-19T01:57:00;10.63;;;5.10;;
65031;SDS011;51593;55.714;37.436;2022-08-19T01:59:28;9.52;;;5.07;;
65031;SDS011;51593;55.714;37.436;2022-08-19T02:01:55;10.00;;;5.00;;
65031;SDS011;51593;55.714;37.436;2022-08-19T02:04:21;15.13;;;5.68;;
65031;SDS011;51593;55.714;37.436;2022-08-19T02:06:48;16.17;;;5.55;;
65031;SDS011;51593;55.714;37.436;2022-08-19T02:09:14;13.93;;;5.35;;
65031;SDS011;51593;55.714;37.436;2022-08-19T02:11:41;12.20;;;6.25;;
65031;SDS011;51593;55.714;37.436;2022-08-19T02:14:07;14.85;;;5.50;;
65031;SDS011;51593;55.714;37.436;2022-08-19T02:16:35;8.77;;;5.43;;
65031;SDS011;51593;55.714;37.436;2022-08-19T02:19:01;9.60;;;5.65;;
65031;SDS011;51593;55.714;37.436;2022-08-19T02:21:28;11.93;;;5.70;;
65031;SDS011;51593;55.714;37.436;2022-08-19T02:23:55;12.02;;;5.50;;
65031;SDS011;51593;55.714;37.436;2022-08-19T02:26:21;12.23;;;5.60;;
65031;SDS011;51593;55.714;37.436;2022-08-19T02:28:47;16.48;;;5.55;;
65031;SDS011;51593;55.714;37.436;2022-08-19T02:31:15;14.95;;;5.90;;
65031;SDS011;51593;55.714;37.436;2022-08-19T02:33:46;16.83;;;5.90;;
65031;SDS011;51593;55.714;37.436;2022-08-19T02:36:13;11.32;;;5.93;;
65031;SDS011;51593;55.714;37.436;2022-08-19T02:38:42;16.60;;;5.70;;
65031;SDS011;51593;55.714;37.436;2022-08-19T02:41:14;15.90;;;6.28;;
65031;SDS011;51593;55.714;37.436;2022-08-19T02:43:45;18.98;;;6.80;;
65031;SDS011;51593;55.714;37.436;2022-08-19T02:48:51;13.77;;;6.20;;
65031;SDS011;51593;55.714;37.436;2022-08-19T02:51:24;15.25;;;5.90;;
65031;SDS011;51593;55.714;37.436;2022-08-19T02:53:51;14.07;;;5.75;;
65031;SDS011;51593;55.714;37.436;2022-08-19T02:56:18;13.05;;;5.65;;
65031;SDS011;51593;55.714;37.436;2022-08-19T02:58:44;19.17;;;6.18;;
65031;SDS011;51593;55.714;37.436;2022-08-19T03:01:10;16.33;;;5.90;;
65031;SDS011;51593;55.714;37.436;2022-08-19T03:03:37;14.88;;;5.55;;
65031;SDS011;51593;55.714;37.436;2022-08-19T03:06:05;15.43;;;5.88;;
65031;SDS011;51593;55.714;37.436;2022-08-19T03:08:33;12.35;;;5.90;;
65031;SDS011;51593;55.714;37.436;2022-08-19T03:10:59;16.73;;;6.25;;
65031;SDS011;51593;55.714;37.436;2022-08-19T03:13:24;16.65;;;6.38;;
65031;SDS011;51593;55.714;37.436;2022-08-19T03:15:51;13.73;;;5.90;;
65031;SDS011;51593;55.714;37.436;2022-08-19T03:18:17;12.43;;;5.80;;
65031;SDS011;51593;55.714;37.436;2022-08-19T03:20:44;10.20;;;5.72;;
65031;SDS011;51593;55.714;37.436;2022-08-19T03:23:11;12.52;;;6.18;;
65031;SDS011;51593;55.714;37.436;2022-08-19T03:25:46;14.27;;;6.00;;
65031;SDS011;51593;55.714;37.436;2022-08-19T03:28:13;13.48;;;5.97;;
65031;SDS011;51593;55.714;37.436;2022-08-19T03:30:43;15.43;;;6.30;;
65031;SDS011;51593;55.714;37.436;2022-08-19T03:33:22;14.43;;;5.97;;
65031;SDS011;51593;55.714;37.436;2022-08-19T03:35:59;12.68;;;5.88;;
65031;SDS011;51593;55.714;37.436;2022-08-19T03:38:29;17.63;;;6.10;;
65031;SDS011;51593;55.714;37.436;2022-08-19T03:40:55;15.57;;;6.00;;
65031;SDS011;51593;55.714;37.436;2022-08-19T03:43:22;15.73;;;5.80;;
65031;SDS011;51593;55.714;37.436;2022-08-19T03:45:48;11.52;;;5.55;;
65031;SDS011;51593;55.714;37.436;2022-08-19T03:48:14;12.10;;;5.85;;
65031;SDS011;51593;55.714;37.436;2022-08-19T03:50:42;13.63;;;5.60;;
65031;SDS011;51593;55.714;37.436;2022-08-19T03:53:08;10.18;;;5.80;;
65031;SDS011;51593;55.714;37.436;2022-08-19T03:55:39;11.63;;;5.47;;
65031;SDS011;51593;55.714;37.436;2022-08-19T03:58:06;15.77;;;6.38;;
65031;SDS011;51593;55.714;37.436;2022-08-19T04:00:32;12.95;;;5.25;;
65031;SDS011;51593;55.714;37.436;2022-08-19T04:02:59;12.27;;;5.72;;
65031;SDS011;51593;55.714;37.436;2022-08-19T04:05:27;12.95;;;5.78;;
65031;SDS011;51593;55.714;37.436;2022-08-19T04:07:54;11.27;;;5.90;;
65031;SDS011;51593;55.714;37.436;2022-08-19T04:10:23;14.38;;;5.95;;
65031;SDS011;51593;55.714;37.436;2022-08-19T04:12:49;14.13;;;5.57;;
65031;SDS011;51593;55.714;37.436;2022-08-19T04:15:15;15.10;;;6.20;;
65031;SDS011;51593;55.714;37.436;2022-08-19T04:18:08;9.82;;;5.90;;
65031;SDS011;51593;55.714;37.436;2022-08-19T04:20:45;12.00;;;5.65;;
65031;SDS011;51593;55.714;37.436;2022-08-19T04:23:12;12.55;;;5.60;;
65031;SDS011;51593;55.714;37.436;2022-08-19T04:25:42;13.57;;;6.43;;
65031;SDS011;51593;55.714;37.436;2022-08-19T04:28:09;11.75;;;5.60;;
65031;SDS011;51593;55.714;37.436;2022-08-19T04:30:54;12.40;;;5.93;;
65031;SDS011;51593;55.714;37.436;2022-08-19T04:33:23;11.80;;;6.10;;
65031;SDS011;51593;55.714;37.436;2022-08-19T04:35:50;13.18;;;5.53;;
65031;SDS011;51593;55.714;37.436;2022-08-19T04:38:19;11.18;;;5.20;;
65031;SDS011;51593;55.714;37.436;2022-08-19T04:40:48;14.07;;;5.75;;
65031;SDS011;51593;55.714;37.436;2022-08-19T04:43:36;14.57;;;5.90;;
65031;SDS011;51593;55.714;37.436;2022-08-19T04:46:06;15.77;;;6.15;;
65031;SDS011;51593;55.714;37.436;2022-08-19T04:48:35;11.82;;;6.00;;
65031;SDS011;51593;55.714;37.436;2022-08-19T04:51:05;13.40;;;6.28;;
65031;SDS011;51593;55.714;37.436;2022-08-19T04:53:34;13.73;;;6.28;;
65031;SDS011;51593;55.714;37.436;2022-08-19T04:58:36;15.25;;;6.57;;
65031;SDS011;51593;55.714;37.436;2022-08-19T05:01:03;15.63;;;6.50;;
65031;SDS011;51593;55.714;37.436;2022-08-19T05:03:30;18.48;;;7.05;;
65031;SDS011;51593;55.714;37.436;2022-08-19T05:06:04;13.52;;;6.30;;
65031;SDS011;51593;55.714;37.436;2022-08-19T05:08:32;17.15;;;6.63;;
65031;SDS011;51593;55.714;37.436;2022-08-19T05:11:01;16.75;;;6.68;;
65031;SDS011;51593;55.714;37.436;2022-08-19T05:13:41;15.60;;;6.68;;
65031;SDS011;51593;55.714;37.436;2022-08-19T05:16:16;15.40;;;6.50;;
65031;SDS011;51593;55.714;37.436;2022-08-19T05:18:44;17.58;;;6.40;;
65031;SDS011;51593;55.714;37.436;2022-08-19T05:21:29;11.38;;;6.40;;
65031;SDS011;51593;55.714;37.436;2022-08-19T05:24:16;19.27;;;6.05;;
65031;SDS011;51593;55.714;37.436;2022-08-19T05:27:05;14.45;;;6.60;;
65031;SDS011;51593;55.714;37.436;2022-08-19T05:29:31;15.25;;;6.25;;
65031;SDS011;51593;55.714;37.436;2022-08-19T05:31:59;14.00;;;6.07;;
65031;SDS011;51593;55.714;37.436;2022-08-19T05:34:33;10.60;;;6.00;;
65031;SDS011;51593;55.714;37.436;2022-08-19T05:36:59;12.82;;;6.35;;
65031;SDS011;51593;55.714;37.436;2022-08-19T05:39:30;12.80;;;6.10;;
65031;SDS011;51593;55.714;37.436;2022-08-19T05:41:59;16.00;;;6.63;;
65031;SDS011;51593;55.714;37.436;2022-08-19T05:44:29;17.88;;;6.38;;
65031;SDS011;51593;55.714;37.436;2022-08-19T05:46:57;12.80;;;6.55;;
65031;SDS011;51593;55.714;37.436;2022-08-19T05:49:25;15.25;;;6.65;;
65031;SDS011;51593;55.714;37.436;2022-08-19T05:51:52;12.65;;;6.20;;
65031;SDS011;51593;55.714;37.436;2022-08-19T05:54:20;14.25;;;6.20;;
65031;SDS011;51593;55.714;37.436;2022-08-19T05:56:50;13.40;;;6.43;;
65031;SDS011;51593;55.714;37.436;2022-08-19T05:59:19;17.48;;;6.20;;
65031;SDS011;51593;55.714;37.436;2022-08-19T06:01:47;14.55;;;6.20;;
65031;SDS011;51593;55.714;37.436;2022-08-19T06:04:35;15.55;;;6.75;;
65031;SDS011;51593;55.714;37.436;2022-08-19T06:07:02;19.33;;;6.03;;
65031;SDS011;51593;55.714;37.436;2022-08-19T06:09:31;18.02;;;6.80;;
65031;SDS011;51593;55.714;37.436;2022-08-19T06:11:58;14.55;;;6.35;;
65031;SDS011;51593;55.714;37.436;2022-08-19T06:14:54;17.38;;;6.35;;
65031;SDS011;51593;55.714;37.436;2022-08-19T06:17:21;14.38;;;6.18;;
65031;SDS011;51593;55.714;37.436;2022-08-19T06:20:10;12.57;;;6.15;;
65031;SDS011;51593;55.714;37.436;2022-08-19T06:22:42;11.25;;;6.10;;
65031;SDS011;51593;55.714;37.436;2022-08-19T06:25:09;15.68;;;6.00;;
65031;SDS011;51593;55.714;37.436;2022-08-19T06:27:38;17.85;;;6.00;;
65031;SDS011;51593;55.714;37.436;2022-08-19T06:30:07;19.15;;;6.25;;
65031;SDS011;51593;55.714;37.436;2022-08-19T06:32:34;14.60;;;5.82;;
65031;SDS011;51593;55.714;37.436;2022-08-19T06:35:00;11.80;;;5.68;;
65031;SDS011;51593;55.714;37.436;2022-08-19T06:37:28;15.15;;;5.53;;
65031;SDS011;51593;55.714;37.436;2022-08-19T06:39:54;11.57;;;5.38;;
65031;SDS011;51593;55.714;37.436;2022-08-19T06:42:20;13.68;;;5.45;;
65031;SDS011;51593;55.714;37.436;2022-08-19T06:44:47;11.57;;;5.45;;
65031;SDS011;51593;55.714;37.436;2022-08-19T06:47:17;12.82;;;5.43;;
65031;SDS011;51593;55.714;37.436;2022-08-19T06:49:45;17.30;;;5.10;;
65031;SDS011;51593;55.714;37.436;2022-08-19T06:52:15;14.95;;;5.30;;
65031;SDS011;51593;55.714;37.436;2022-08-19T06:54:42;15.00;;;5.70;;
65031;SDS011;51593;55.714;37.436;2022-08-19T06:57:08;14.65;;;5.68;;
65031;SDS011;51593;55.714;37.436;2022-08-19T06:59:39;16.80;;;5.53;;
65031;SDS011;51593;55.714;37.436;2022-08-19T07:02:06;12.90;;;5.32;;
65031;SDS011;51593;55.714;37.436;2022-08-19T07:04:37;10.45;;;5.45;;
65031;SDS011;51593;55.714;37.436;2022-08-19T07:07:06;11.07;;;5.65;;
65031;SDS011;51593;55.714;37.436;2022-08-19T07:09:37;16.40;;;5.80;;
65031;SDS011;51593;55.714;37.436;2022-08-19T07:12:06;12.45;;;5.35;;
65031;SDS011;51593;55.714;37.436;2022-08-19T07:14:34;14.80;;;5.78;;
65031;SDS011;51593;55.714;37.436;2022-08-19T07:17:08;20.90;;;5.80;;
65031;SDS011;51593;55.714;37.436;2022-08-19T07:19:38;16.77;;;6.07;;
65031;SDS011;51593;55.714;37.436;2022-08-19T07:22:06;15.13;;;5.72;;
65031;SDS011;51593;55.714;37.436;2022-08-19T07:24:33;9.55;;;5.38;;
65031;SDS011;51593;55.714;37.436;2022-08-19T07:27:03;14.95;;;5.85;;
65031;SDS011;51593;55.714;37.436;2022-08-19T07:29:33;14.55;;;5.85;;
65031;SDS011;51593;55.714;37.436;2022-08-19T07:32:00;11.90;;;5.03;;
65031;SDS011;51593;55.714;37.436;2022-08-19T07:34:28;14.32;;;5.50;;
65031;SDS011;51593;55.714;37.436;2022-08-19T07:37:05;10.73;;;5.30;;
65031;SDS011;51593;55.714;37.436;2022-08-19T07:39:35;13.68;;;5.05;;
65031;SDS011;51593;55.714;37.436;2022-08-19T07:42:05;11.00;;;5.40;;
65031;SDS011;51593;55.714;37.436;2022-08-19T07:44:33;13.32;;;5.22;;
65031;SDS011;51593;55.714;37.436;2022-08-19T07:47:01;17.58;;;5.93;;
65031;SDS011;51593;55.714;37.436;2022-08-19T07:49:29;9.80;;;5.35;;
65031;SDS011;51593;55.714;37.436;2022-08-19T07:51:59;13.73;;;5.07;;
65031;SDS011;51593;55.714;37.436;2022-08-19T07:54:29;13.73;;;4.82;;
65031;SDS011;51593;55.714;37.436;2022-08-19T07:56:56;15.23;;;5.05;;
65031;SDS011;51593;55.714;37.436;2022-08-19T07:59:22;19.00;;;5.57;;
65031;SDS011;51593;55.714;37.436;2022-08-19T08:01:49;14.75;;;5.15;;
65031;SDS011;51593;55.714;37.436;2022-08-19T08:04:15;18.77;;;5.20;;
65031;SDS011;51593;55.714;37.436;2022-08-19T08:07:00;14.18;;;4.57;;
65031;SDS011;51593;55.714;37.436;2022-08-19T08:09:45;14.57;;;4.90;;
65031;SDS011;51593;55.714;37.436;2022-08-19T08:12:21;13.75;;;4.60;;
65031;SDS011;51593;55.714;37.436;2022-08-19T08:14:51;17.13;;;4.20;;
65031;SDS011;51593;55.714;37.436;2022-08-19T08:17:23;13.18;;;4.88;;
65031;SDS011;51593;55.714;37.436;2022-08-19T08:19:50;13.05;;;4.20;;
65031;SDS011;51593;55.714;37.436;2022-08-19T08:22:17;15.30;;;4.53;;
65031;SDS011;51593;55.714;37.436;2022-08-19T08:25:07;15.50;;;4.40;;
65031;SDS011;51593;55.714;37.436;2022-08-19T08:27:37;14.20;;;4.57;;
65031;SDS011;51593;55.714;37.436;2022-08-19T08:30:08;22.38;;;5.20;;
65031;SDS011;51593;55.714;37.436;2022-08-19T08:32:38;14.75;;;4.80;;
65031;SDS011;51593;55.714;37.436;2022-08-19T08:35:07;11.77;;;4.90;;
65031;SDS011;51593;55.714;37.436;2022-08-19T08:37:35;11.10;;;4.88;;
65031;SDS011;51593;55.714;37.436;2022-08-19T08:40:03;15.38;;;5.03;;
65031;SDS011;51593;55.714;37.436;2022-08-19T08:42:32;12.25;;;4.88;;
65031;SDS011;51593;55.714;37.436;2022-08-19T08:45:03;14.07;;;4.95;;
65031;SDS011;51593;55.714;37.436;2022-08-19T08:47:34;12.15;;;4.63;;
65031;SDS011;51593;55.714;37.436;2022-08-19T08:50:09;11.27;;;4.80;;
65031;SDS011;51593;55.714;37.436;2022-08-19T08:53:01;12.85;;;4.82;;
65031;SDS011;51593;55.714;37.436;2022-08-19T08:55:29;12.65;;;4.82;;
65031;SDS011;51593;55.714;37.436;2022-08-19T08:58:01;14.63;;;5.15;;
65031;SDS011;51593;55.714;37.436;2022-08-19T09:00:32;9.23;;;4.57;;
65031;SDS011;51593;55.714;37.436;2022-08-19T09:03:00;13.05;;;4.13;;
65031;SDS011;51593;55.714;37.436;2022-08-19T09:05:34;13.95;;;4.40;;
65031;SDS011;51593;55.714;37.436;2022-08-19T09:08:18;10.48;;;4.50;;
65031;SDS011;51593;55.714;37.436;2022-08-19T09:10:51;11.30;;;3.88;;
65031;SDS011;51593;55.714;37.436;2022-08-19T09:16:02;9.13;;;4.28;;
65031;SDS011;51593;55.714;37.436;2022-08-19T09:18:39;10.07;;;3.83;;
65031;SDS011;51593;55.714;37.436;2022-08-19T09:21:13;16.75;;;4.43;;
65031;SDS011;51593;55.714;37.436;2022-08-19T09:23:43;11.07;;;4.68;;
65031;SDS011;51593;55.714;37.436;2022-08-19T09:26:25;10.88;;;4.45;;
65031;SDS011;51593;55.714;37.436;2022-08-19T09:28:52;14.43;;;4.60;;
65031;SDS011;51593;55.714;37.436;2022-08-19T09:31:20;8.40;;;4.22;;
65031;SDS011;51593;55.714;37.436;2022-08-19T09:34:02;12.90;;;4.43;;
65031;SDS011;51593;55.714;37.436;2022-08-19T09:36:31;18.20;;;4.82;;
65031;SDS011;51593;55.714;37.436;2022-08-19T09:39:04;10.98;;;4.65;;
65031;SDS011;51593;55.714;37.436;2022-08-19T09:41:31;14.15;;;4.90;;
65031;SDS011;51593;55.714;37.436;2022-08-19T09:43:58;12.60;;;4.50;;
65031;SDS011;51593;55.714;37.436;2022-08-19T09:46:26;10.23;;;5.00;;
65031;SDS011;51593;55.714;37.436;2022-08-19T09:48:58;9.90;;;4.60;;
65031;SDS011;51593;55.714;37.436;2022-08-19T09:51:25;15.23;;;4.70;;
65031;SDS011;51593;55.714;37.436;2022-08-19T09:53:58;11.25;;;4.82;;
65031;SDS011;51593;55.714;37.436;2022-08-19T09:56:26;11.13;;;4.60;;
65031;SDS011;51593;55.714;37.436;2022-08-19T09:58:53;12.10;;;4.90;;
65031;SDS011;51593;55.714;37.436;2022-08-19T10:01:23;10.27;;;4.80;;
65031;SDS011;51593;55.714;37.436;2022-08-19T10:03:51;11.85;;;4.65;;
65031;SDS011;51593;55.714;37.436;2022-08-19T10:06:32;12.40;;;4.28;;
65031;SDS011;51593;55.714;37.436;2022-08-19T10:09:00;27.67;;;4.22;;
65031;SDS011;51593;55.714;37.436;2022-08-19T10:11:26;9.77;;;3.58;;
65031;SDS011;51593;55.714;37.436;2022-08-19T10:13:53;14.65;;;3.67;;
65031;SDS011;51593;55.714;37.436;2022-08-19T10:16:19;14.43;;;3.60;;
65031;SDS011;51593;55.714;37.436;2022-08-19T10:18:48;10.15;;;3.20;;
65031;SDS011;51593;55.714;37.436;2022-08-19T10:24:11;12.30;;;3.85;;
65031;SDS011;51593;55.714;37.436;2022-08-19T10:26:38;10.43;;;3.67;;
65031;SDS011;51593;55.714;37.436;2022-08-19T10:29:06;11.20;;;3.60;;
65031;SDS011;51593;55.714;37.436;2022-08-19T10:31:33;9.43;;;3.40;;
65031;SDS011;51593;55.714;37.436;2022-08-19T10:34:19;11.80;;;3.78;;
65031;SDS011;51593;55.714;37.436;2022-08-19T10:36:45;7.10;;;3.17;;
65031;SDS011;51593;55.714;37.436;2022-08-19T10:39:13;10.88;;;3.40;;
65031;SDS011;51593;55.714;37.436;2022-08-19T10:41:39;9.02;;;3.75;;
65031;SDS011;51593;55.714;37.436;2022-08-19T10:44:09;11.20;;;3.40;;
65031;SDS011;51593;55.714;37.436;2022-08-19T10:46:38;11.38;;;3.13;;
65031;SDS011;51593;55.714;37.436;2022-08-19T10:49:07;9.82;;;3.30;;
65031;SDS011;51593;55.714;37.436;2022-08-19T10:51:35;16.17;;;3.10;;
65031;SDS011;51593;55.714;37.436;2022-08-19T10:54:19;15.27;;;3.58;;
65031;SDS011;51593;55.714;37.436;2022-08-19T10:56:45;6.65;;;3.20;;
65031;SDS011;51593;55.714;37.436;2022-08-19T10:59:28;13.48;;;3.70;;
65031;SDS011;51593;55.714;37.436;2022-08-19T11:01:58;18.20;;;3.65;;
65031;SDS011;51593;55.714;37.436;2022-08-19T11:04:28;8.55;;;3.53;;
65031;SDS011;51593;55.714;37.436;2022-08-19T11:06:55;10.68;;;3.17;;
65031;SDS011;51593;55.714;37.436;2022-08-19T11:09:21;13.38;;;3.60;;
65031;SDS011;51593;55.714;37.436;2022-08-19T11:11:52;11.60;;;3.65;;
65031;SDS011;51593;55.714;37.436;2022-08-19T11:14:20;14.73;;;3.65;;
65031;SDS011;51593;55.714;37.436;2022-08-19T11:16:47;15.88;;;3.83;;
65031;SDS011;51593;55.714;37.436;2022-08-19T11:19:19;13.65;;;3.35;;
65031;SDS011;51593;55.714;37.436;2022-08-19T11:21:54;11.40;;;3.50;;
65031;SDS011;51593;55.714;37.436;2022-08-19T11:24:24;12.63;;;3.50;;
65031;SDS011;51593;55.714;37.436;2022-08-19T11:26:55;9.30;;;3.10;;
65031;SDS011;51593;55.714;37.436;2022-08-19T11:29:28;12.13;;;3.38;;
65031;SDS011;51593;55.714;37.436;2022-08-19T11:31:56;5.20;;;3.33;;
65031;SDS011;51593;55.714;37.436;2022-08-19T11:34:23;8.20;;;3.38;;
65031;SDS011;51593;55.714;37.436;2022-08-19T11:36:53;10.55;;;3.13;;
65031;SDS011;51593;55.714;37.436;2022-08-19T11:39:22;11.40;;;3.13;;
65031;SDS011;51593;55.714;37.436;2022-08-19T11:41:47;12.95;;;3.35;;
65031;SDS011;51593;55.714;37.436;2022-08-19T11:44:13;11.40;;;3.40;;
65031;SDS011;51593;55.714;37.436;2022-08-19T11:46:40;7.93;;;3.33;;
65031;SDS011;51593;55.714;37.436;2022-08-19T11:49:08;14.27;;;3.33;;
65031;SDS011;51593;55.714;37.436;2022-08-19T11:51:37;11.25;;;3.20;;
65031;SDS011;51593;55.714;37.436;2022-08-19T11:54:04;8.55;;;3.45;;
65031;SDS011;51593;55.714;37.436;2022-08-19T11:56:30;8.60;;;3.58;;
65031;SDS011;51593;55.714;37.436;2022-08-19T11:58:56;11.23;;;3.60;;
65031;SDS011;51593;55.714;37.436;2022-08-19T12:01:23;8.63;;;3.40;;
65031;SDS011;51593;55.714;37.436;2022-08-19T12:03:50;13.25;;;3.63;;
65031;SDS011;51593;55.714;37.436;2022-08-19T12:06:19;11.50;;;3.15;;
65031;SDS011;51593;55.714;37.436;2022-08-19T12:08:52;7.57;;;3.53;;
65031;SDS011;51593;55.714;37.436;2022-08-19T12:11:18;6.50;;;3.50;;
65031;SDS011;51593;55.714;37.436;2022-08-19T12:13:45;11.30;;;3.58;;
65031;SDS011;51593;55.714;37.436;2022-08-19T12:16:13;8.32;;;3.53;;
65031;SDS011;51593;55.714;37.436;2022-08-19T12:18:41;9.32;;;3.42;;
65031;SDS011;51593;55.714;37.436;2022-08-19T12:21:12;12.35;;;3.63;;
65031;SDS011;51593;55.714;37.436;2022-08-19T12:26:13;10.63;;;3.80;;
65031;SDS011;51593;55.714;37.436;2022-08-19T12:28:39;8.23;;;3.83;;
65031;SDS011;51593;55.714;37.436;2022-08-19T12:31:07;7.38;;;3.65;;
65031;SDS011;51593;55.714;37.436;2022-08-19T12:33:33;8.15;;;3.97;;
65031;SDS011;51593;55.714;37.436;2022-08-19T12:36:01;8.00;;;3.90;;
65031;SDS011;51593;55.714;37.436;2022-08-19T12:38:29;11.75;;;3.60;;
65031;SDS011;51593;55.714;37.436;2022-08-19T12:40:57;10.18;;;4.03;;
65031;SDS011;51593;55.714;37.436;2022-08-19T12:43:23;11.05;;;3.85;;
65031;SDS011;51593;55.714;37.436;2022-08-19T12:45:50;13.98;;;4.10;;
65031;SDS011;51593;55.714;37.436;2022-08-19T12:48:16;8.50;;;4.03;;
65031;SDS011;51593;55.714;37.436;2022-08-19T12:50:43;11.60;;;3.72;;
65031;SDS011;51593;55.714;37.436;2022-08-19T12:53:13;11.50;;;3.75;;
65031;SDS011;51593;55.714;37.436;2022-08-19T12:55:39;11.38;;;4.00;;
65031;SDS011;51593;55.714;37.436;2022-08-19T12:58:08;15.10;;;4.13;;
65031;SDS011;51593;55.714;37.436;2022-08-19T13:00:34;14.25;;;4.07;;
65031;SDS011;51593;55.714;37.436;2022-08-19T13:03:00;10.18;;;4.30;;
65031;SDS011;51593;55.714;37.436;2022-08-19T13:05:27;9.70;;;3.83;;
65031;SDS011;51593;55.714;37.436;2022-08-19T13:07:56;10.63;;;3.90;;
65031;SDS011;51593;55.714;37.436;2022-08-19T13:10:26;12.70;;;3.75;;
65031;SDS011;51593;55.714;37.436;2022-08-19T13:13:00;11.20;;;4.28;;
65031;SDS011;51593;55.714;37.436;2022-08-19T13:15:27;15.70;;;4.70;;
65031;SDS011;51593;55.714;37.436;2022-08-19T13:17:57;19.33;;;4.93;;
65031;SDS011;51593;55.714;37.436;2022-08-19T13:20:23;13.50;;;4.57;;
65031;SDS011;51593;55.714;37.436;2022-08-19T13:22:49;21.23;;;4.75;;
65031;SDS011;51593;55.714;37.436;2022-08-19T13:25:15;25.50;;;4.60;;
65031;SDS011;51593;55.714;37.436;2022-08-19T13:27:44;14.43;;;4.40;;
65031;SDS011;51593;55.714;37.436;2022-08-19T13:30:11;12.70;;;5.13;;
65031;SDS011;51593;55.714;37.436;2022-08-19T13:32:56;11.98;;;5.35;;
65031;SDS011;51593;55.714;37.436;2022-08-19T13:35:45;12.02;;;5.80;;
65031;SDS011;51593;55.714;37.436;2022-08-19T13:38:18;13.65;;;7.43;;
65031;SDS011;51593;55.714;37.436;2022-08-19T13:40:45;17.95;;;8.10;;
65031;SDS011;51593;55.714;37.436;2022-08-19T13:43:12;16.08;;;7.60;;
65031;SDS011;51593;55.714;37.436;2022-08-19T13:45:39;12.38;;;6.93;;
65031;SDS011;51593;55.714;37.436;2022-08-19T13:48:06;19.77;;;7.15;;
65031;SDS011;51593;55.714;37.436;2022-08-19T13:50:35;12.88;;;6.95;;
65031;SDS011;51593;55.714;37.436;2022-08-19T13:53:10;22.98;;;7.68;;
65031;SDS011;51593;55.714;37.436;2022-08-19T13:55:37;14.65;;;5.65;;
65031;SDS011;51593;55.714;37.436;2022-08-19T13:58:05;15.32;;;5.75;;
65031;SDS011;51593;55.714;37.436;2022-08-19T14:00:32;13.10;;;5.40;;
65031;SDS011;51593;55.714;37.436;2022-08-19T14:03:01;11.07;;;4.70;;
65031;SDS011;51593;55.714;37.436;2022-08-19T14:05:30;13.27;;;4.60;;
65031;SDS011;51593;55.714;37.436;2022-08-19T14:07:56;10.73;;;4.15;;
65031;SDS011;51593;55.714;37.436;2022-08-19T14:10:22;13.98;;;4.88;;
65031;SDS011;51593;55.714;37.436;2022-08-19T14:12:52;14.07;;;4.82;;
65031;SDS011;51593;55.714;37.436;2022-08-19T14:15:21;17.20;;;4.50;;
65031;SDS011;51593;55.714;37.436;2022-08-19T14:17:48;13.85;;;4.70;;
65031;SDS011;51593;55.714;37.436;2022-08-19T14:20:14;15.25;;;7.30;;
65031;SDS011;51593;55.714;37.436;2022-08-19T14:22:41;13.93;;;9.35;;
65031;SDS011;51593;55.714;37.436;2022-08-19T14:25:37;18.92;;;9.75;;
65031;SDS011;51593;55.714;37.436;2022-08-19T14:28:03;15.68;;;10.75;;
65031;SDS011;51593;55.714;37.436;2022-08-19T14:30:32;21.10;;;11.57;;
65031;SDS011;51593;55.714;37.436;2022-08-19T14:33:00;24.83;;;10.98;;
65031;SDS011;51593;55.714;37.436;2022-08-19T14:35:27;17.80;;;10.75;;
65031;SDS011;51593;55.714;37.436;2022-08-19T14:37:54;13.85;;;9.60;;
65031;SDS011;51593;55.714;37.436;2022-08-19T14:40:21;13.60;;;8.35;;
65031;SDS011;51593;55.714;37.436;2022-08-19T14:43:03;13.00;;;9.00;;
65031;SDS011;51593;55.714;37.436;2022-08-19T14:45:31;19.10;;;11.00;;
65031;SDS011;51593;55.714;37.436;2022-08-19T14:47:58;20.42;;;11.77;;
65031;SDS011;51593;55.714;37.436;2022-08-19T14:50:25;16.55;;;12.55;;
65031;SDS011;51593;55.714;37.436;2022-08-19T14:52:57;23.90;;;14.80;;
65031;SDS011;51593;55.714;37.436;2022-08-19T14:55:25;31.08;;;18.27;;